• Join FlightAware (Why Join?)
  • Login
  • US Flag 
07:12AM EST


 

Airport Tracker/Info


-or-


 

Live Flight TrackerFlight Track Log ✈ N50838 ✈ 27-May-2013 ✈ KBFI - KPAE

Flight Track Log - Related Links

Times and Time Zones

All times are in EDT time to prevent confusion due to time zone crossing. See the N50838 flight status page for this flight to view local times or setup timezone preferences in your user account.

Time Position Orientation Groundspeed Altitude Reporting Facility
EDT Latitude Longitude Course Direction KTS MPH feet Rate Location/Type
05:08PM 47.5206 -122.2961 159° South 71 82 700  Level Seattle Center
05:10PM 47.4997 -122.2844 159° South 59 68 1,700 720 Climbing Seattle Center
05:11PM 47.4864 -122.2756 156° South 56 64 2,400 660 Climbing Seattle Center
05:12PM 47.4794 -122.2564 118° Southeast 72 83 3,100 540 Climbing Seattle Center
05:13PM 47.5008 -122.2408 26° Northeast 91 105 3,500 420 Climbing Seattle Center
05:14PM 47.5283 -122.2258 20° North 101 116 4,000 240 Climbing Seattle Center
05:15PM 47.5594 -122.2081 21° North 112 129 4,000  Level Seattle Center
05:16PM 47.5942 -122.1831 26° Northeast 125 144 4,000 -60 Level Seattle Center
05:17PM 47.6233 -122.1853 357° North 128 147 3,900  Descending Seattle Center
05:18PM 47.6653 -122.1900 356° North 129 148 4,000  Climbing Seattle Center
05:19PM 47.7000 -122.1950 354° North 128 147 4,000  Level Seattle Center
05:20PM 47.7344 -122.2003 354° North 128 147 4,000  Level Seattle Center
05:21PM 47.7697 -122.2058 354° North 128 147 4,000 -60 Level Seattle Center
05:22PM 47.8042 -122.2119 353° North 128 147 3,900 -60 Descending Seattle Center
05:23PM 47.8408 -122.2211 350° North 131 151 3,900  Level Seattle Center
05:24PM 47.8867 -122.2314 351° North 134 154 4,000  Climbing Seattle Center
05:25PM 47.9236 -122.2369 354° North 139 160 4,000  Level Seattle Center
05:26PM 47.9583 -122.2447 351° North 136 157 4,000  Level Seattle Center
05:27PM 47.9947 -122.2519 352° North 136 157 4,000 -240 Level Seattle Center
05:28PM 48.0336 -122.2683 344° North 121 139 3,600 -480 Descending Seattle Center
05:29PM 48.0606 -122.2808 343° North 124 143 3,100 -780 Descending Seattle Center
05:30PM 48.0611 -122.3228 271° West 112 129 2,100 -600 Descending Seattle Center
05:31PM 48.0394 -122.3403 208° Southwest 96 110 2,000 -300 Descending Seattle Center
05:32PM 48.0167 -122.3261 157° South 79 91 1,500 -480 Descending Seattle Center
05:33PM 47.9928 -122.3178 167° South 78 90 1,000 -240 Descending Seattle Center
05:34PM 47.9756 -122.3061 156° South 78 90 1,100  Climbing Seattle Center
05:35PM 47.9494 -122.2956 165° South 84 97 1,100 -120 Level Seattle Center
05:36PM 47.9342 -122.2881 162° South 78 90 900 -180 Descending Seattle Center
05:37PM 47.9175 -122.2833 169° South 71 82 800 -120 Descending Seattle Center